createdAt,value
2018-12-14T00:03:56.648Z,15.1
2018-12-14T00:09:19.530Z,15.3
2018-12-14T00:14:42.468Z,15.3
2018-12-14T00:20:05.609Z,15.1
2018-12-14T00:25:28.803Z,16.1
2018-12-14T00:30:51.716Z,15.5
2018-12-14T00:36:14.517Z,16.4
2018-12-14T00:41:37.262Z,15.6
2018-12-14T00:47:00.687Z,15.4
2018-12-14T00:52:23.446Z,16
2018-12-14T00:57:46.183Z,16.9
2018-12-14T01:03:09.758Z,16.5
2018-12-14T01:08:44.207Z,16.4
2018-12-14T01:14:06.981Z,16.9
2018-12-14T01:19:29.814Z,17.299999
2018-12-14T01:24:52.707Z,16.6
2018-12-14T01:30:16.088Z,17.1
2018-12-14T01:35:38.942Z,17
2018-12-14T01:41:01.834Z,16.6
2018-12-14T05:39:30.899Z,18.700001
2018-12-14T05:45:05.220Z,19.299999
2018-12-14T05:51:30.937Z,18.299999
2018-12-14T05:56:54.021Z,18.700001
2018-12-14T06:02:17.062Z,18.6
2018-12-14T06:07:39.785Z,18.5
2018-12-14T06:13:11.657Z,18.200001
2018-12-14T06:18:35.059Z,20.200001
2018-12-14T06:24:09.123Z,21.200001
2018-12-14T06:30:00.401Z,19
2018-12-14T06:35:23.370Z,24.700001
2018-12-14T06:40:46.082Z,26.9
2018-12-14T06:46:12.373Z,25.299999
2018-12-14T06:51:38.717Z,20.6
2018-12-14T06:57:01.312Z,20.6
2018-12-14T07:02:24.033Z,20.4
2018-12-14T07:07:48.117Z,19.799999
2018-12-14T07:13:12.176Z,20.5
2018-12-14T07:18:35.301Z,20.1
2018-12-14T07:23:58.120Z,22.299999
2018-12-14T07:29:26.182Z,21.5
2018-12-14T07:34:48.969Z,21.299999
2018-12-14T07:40:11.207Z,21.6
2018-12-14T07:45:34.299Z,22.1
2018-12-14T07:50:58.942Z,21.200001
2018-12-14T07:56:22.786Z,22
2018-12-14T08:01:46.071Z,21.6
2018-12-14T08:07:10.200Z,22.5
2018-12-14T08:12:32.994Z,21.9
2018-12-14T08:17:57.210Z,21.6
2018-12-14T08:23:20.578Z,20.299999
2018-12-14T08:28:43.454Z,20.799999
2018-12-14T08:34:06.190Z,19.5
2018-12-14T08:39:29.039Z,20
2018-12-14T08:44:51.882Z,19.700001
2018-12-14T08:50:14.712Z,20.200001
2018-12-14T08:55:38.272Z,19
2018-12-14T09:01:01.139Z,19.1
2018-12-14T09:06:23.846Z,19.4
2018-12-14T09:11:46.601Z,18.200001
2018-12-14T09:17:09.444Z,18.299999
2018-12-14T09:22:44.375Z,18
2018-12-14T09:28:18.766Z,19.1
2018-12-14T09:33:51.262Z,18
2018-12-14T09:39:14.206Z,18.700001
2018-12-14T09:44:36.917Z,18.700001
2018-12-14T09:49:59.734Z,17.6
2018-12-14T09:55:22.628Z,18.299999
2018-12-14T10:00:54.427Z,18.200001
2018-12-14T10:06:26.150Z,17.700001
2018-12-14T10:11:54.839Z,18.200001
2018-12-14T10:17:12.670Z,17.200001
2018-12-14T10:22:41.457Z,16.299999
2018-12-14T10:28:00.237Z,16.299999
2018-12-14T10:33:23.129Z,15
2018-12-14T10:38:45.938Z,14.6
2018-12-14T10:44:08.712Z,14.6
2018-12-14T10:49:32.247Z,14.6
2018-12-14T10:54:55.150Z,13.5
2018-12-14T11:00:17.920Z,13.6
2018-12-14T11:05:40.660Z,13.9
2018-12-14T11:11:03.432Z,13.3
2018-12-14T11:16:26.301Z,13.6
2018-12-14T11:21:49.068Z,12.9
2018-12-14T11:27:12.075Z,13.2
2018-12-14T11:32:34.897Z,14.2
2018-12-14T11:37:57.730Z,14.4
2018-12-14T11:43:21.883Z,14.2
2018-12-14T11:48:45.011Z,13.2
2018-12-14T11:54:08.557Z,12.3
2018-12-14T11:59:31.401Z,12.7
2018-12-14T12:04:54.238Z,13.6
2018-12-14T12:10:16.986Z,13.9
2018-12-14T12:15:39.737Z,13.4
2018-12-14T12:21:02.559Z,13.9
2018-12-14T12:26:25.327Z,13.1
2018-12-14T12:31:48.121Z,13.6
2018-12-14T12:37:10.988Z,12.7
2018-12-14T12:42:33.962Z,11.9
2018-12-14T12:47:56.767Z,11.6
2018-12-14T12:53:21.021Z,12
2018-12-14T12:58:43.808Z,10.9
2018-12-14T13:04:06.559Z,10.5
2018-12-14T13:09:29.301Z,10.8
2018-12-14T13:14:52.095Z,11
2018-12-14T13:20:15.125Z,10.4
2018-12-14T13:25:37.879Z,10.5
2018-12-14T13:31:00.603Z,11
2018-12-14T13:36:23.346Z,10.1
2018-12-14T13:41:46.093Z,9.9
2018-12-14T13:47:09.448Z,10.4
2018-12-14T13:52:34.018Z,10.6
2018-12-14T13:57:58.672Z,10.5
2018-12-14T14:03:22.428Z,11.1
2018-12-14T14:08:45.246Z,10.9
2018-12-14T14:14:08.000Z,11.3
2018-12-14T14:19:30.974Z,11.6
2018-12-14T14:24:54.561Z,11.4
2018-12-14T14:30:17.337Z,11.1
2018-12-14T14:35:51.542Z,11.2
2018-12-14T14:41:14.319Z,11.9
2018-12-14T14:46:37.063Z,14.5
2018-12-14T14:52:10.007Z,11.5
2018-12-14T14:57:32.760Z,11.8
2018-12-14T15:02:55.476Z,12
2018-12-14T15:08:19.638Z,11.9
2018-12-14T15:13:42.486Z,11.4
2018-12-14T15:19:05.352Z,11.1
2018-12-14T15:24:34.680Z,14.6
2018-12-14T15:29:57.374Z,12.2
2018-12-14T15:35:20.082Z,11.1
2018-12-14T15:40:43.835Z,11
2018-12-14T15:46:06.878Z,11.3
2018-12-14T15:51:29.697Z,11.1
2018-12-14T15:56:52.492Z,10.6
2018-12-14T16:02:15.729Z,11.2
2018-12-14T16:07:38.834Z,10.7
2018-12-14T16:13:01.741Z,11.5
2018-12-14T16:18:24.499Z,11.6
2018-12-14T16:23:57.448Z,11.5
2018-12-14T16:29:20.092Z,12.1
2018-12-14T16:34:42.799Z,12.1
2018-12-14T16:40:05.524Z,12
2018-12-14T16:45:28.263Z,11.3
2018-12-14T16:50:51.521Z,11.4
2018-12-14T16:56:14.302Z,11.2
2018-12-14T17:01:37.052Z,12.3
2018-12-14T17:06:59.751Z,11.5
2018-12-14T17:12:23.023Z,11.1
2018-12-14T17:17:46.063Z,11.9
2018-12-14T17:23:09.072Z,12
2018-12-14T17:28:32.481Z,11.7
2018-12-14T17:33:56.171Z,11.6
2018-12-14T17:39:18.952Z,12.1
2018-12-14T17:44:42.146Z,12.7
2018-12-14T17:50:05.965Z,13.2
2018-12-14T17:55:28.575Z,13
2018-12-14T18:00:51.300Z,12.9
2018-12-14T18:06:13.981Z,12.2
2018-12-14T18:11:37.114Z,12.8
2018-12-14T18:16:59.879Z,12.9
2018-12-14T18:22:22.586Z,13
2018-12-14T18:27:45.247Z,12.7
2018-12-14T18:33:07.947Z,13.8
2018-12-14T18:38:30.655Z,13.4
2018-12-14T18:43:53.644Z,13.9
